sensor_id;sensor_type;location;lat;lon;timestamp;temperature;humidity
18317;DHT22;9284;52.298;21.164;2022-11-20T04:09:41;-5.50;99.90
18317;DHT22;9284;52.298;21.164;2022-11-20T04:12:10;-5.50;41.80
18317;DHT22;9284;52.298;21.164;2022-11-20T04:14:40;-5.50;99.90
18317;DHT22;9284;52.298;21.164;2022-11-20T04:17:10;-5.60;99.90
18317;DHT22;9284;52.298;21.164;2022-11-20T04:19:42;-5.60;1.00
18317;DHT22;9284;52.298;21.164;2022-11-20T04:22:10;-5.70;99.90
18317;DHT22;9284;52.298;21.164;2022-11-20T04:24:40;-5.70;1.00
18317;DHT22;9284;52.298;21.164;2022-11-20T04:27:09;-5.80;1.00
18317;DHT22;9284;52.298;21.164;2022-11-20T04:29:37;-5.80;99.90
18317;DHT22;9284;52.298;21.164;2022-11-20T04:32:06;-5.80;99.90
18317;DHT22;9284;52.298;21.164;2022-11-20T04:34:36;-5.90;99.90
18317;DHT22;9284;52.298;21.164;2022-11-20T04:37:08;-5.90;99.90
18317;DHT22;9284;52.298;21.164;2022-11-20T04:39:40;-6.00;99.90
18317;DHT22;9284;52.298;21.164;2022-11-20T04:42:09;-6.10;99.90
18317;DHT22;9284;52.298;21.164;2022-11-20T04:44:56;-6.10;1.00
18317;DHT22;9284;52.298;21.164;2022-11-20T04:47:25;-6.10;1.00
18317;DHT22;9284;52.298;21.164;2022-11-20T04:49:53;-6.10;1.00
18317;DHT22;9284;52.298;21.164;2022-11-20T04:52:21;-6.10;1.00
18317;DHT22;9284;52.298;21.164;2022-11-20T04:54:51;-6.20;1.00
18317;DHT22;9284;52.298;21.164;2022-11-20T04:57:20;-6.30;1.00
18317;DHT22;9284;52.298;21.164;2022-11-20T04:59:49;-6.30;1.00
18317;DHT22;9284;52.298;21.164;2022-11-20T05:02:17;-6.30;99.90
18317;DHT22;9284;52.298;21.164;2022-11-20T05:04:46;-6.30;99.90
18317;DHT22;9284;52.298;21.164;2022-11-20T05:07:17;-6.30;99.90
18317;DHT22;9284;52.298;21.164;2022-11-20T05:09:45;-6.30;99.90
18317;DHT22;9284;52.298;21.164;2022-11-20T05:12:15;-6.40;1.00
18317;DHT22;9284;52.298;21.164;2022-11-20T05:14:43;-6.40;99.90
18317;DHT22;9284;52.298;21.164;2022-11-20T05:17:12;-6.50;99.90
18317;DHT22;9284;52.298;21.164;2022-11-20T05:19:41;-6.50;99.90
18317;DHT22;9284;52.298;21.164;2022-11-20T05:22:09;-6.50;99.90
18317;DHT22;9284;52.298;21.164;2022-11-20T05:24:38;-6.60;99.90
18317;DHT22;9284;52.298;21.164;2022-11-20T05:27:06;-6.50;99.90
18317;DHT22;9284;52.298;21.164;2022-11-20T05:29:36;-6.50;99.90
18317;DHT22;9284;52.298;21.164;2022-11-20T05:32:06;-6.60;99.90
18317;DHT22;9284;52.298;21.164;2022-11-20T05:34:38;-6.60;1.00
18317;DHT22;9284;52.298;21.164;2022-11-20T05:37:08;-6.70;1.00
18317;DHT22;9284;52.298;21.164;2022-11-20T05:39:39;-6.70;1.00
18317;DHT22;9284;52.298;21.164;2022-11-20T05:42:07;-6.80;1.00
18317;DHT22;9284;52.298;21.164;2022-11-20T05:44:54;-6.90;1.00
18317;DHT22;9284;52.298;21.164;2022-11-20T05:47:23;-6.90;1.00
18317;DHT22;9284;52.298;21.164;2022-11-20T05:49:51;-6.90;1.00
18317;DHT22;9284;52.298;21.164;2022-11-20T05:52:20;-6.90;1.00
18317;DHT22;9284;52.298;21.164;2022-11-20T05:54:50;-6.90;1.00
18317;DHT22;9284;52.298;21.164;2022-11-20T05:57:18;-7.00;1.00
18317;DHT22;9284;52.298;21.164;2022-11-20T05:59:47;-7.00;1.00
18317;DHT22;9284;52.298;21.164;2022-11-20T06:02:19;-7.00;53.00
18317;DHT22;9284;52.298;21.164;2022-11-20T06:04:51;-7.00;99.90
18317;DHT22;9284;52.298;21.164;2022-11-20T06:07:19;-7.00;99.90
18317;DHT22;9284;52.298;21.164;2022-11-20T06:09:49;-7.00;99.90
18317;DHT22;9284;52.298;21.164;2022-11-20T06:12:19;-7.10;99.90
18317;DHT22;9284;52.298;21.164;2022-11-20T06:14:47;-7.10;99.90
18317;DHT22;9284;52.298;21.164;2022-11-20T06:17:20;-7.10;99.90
18317;DHT22;9284;52.298;21.164;2022-11-20T06:19:49;-7.10;99.90
18317;DHT22;9284;52.298;21.164;2022-11-20T06:22:17;-7.20;99.90
18317;DHT22;9284;52.298;21.164;2022-11-20T06:24:46;-7.20;99.90
18317;DHT22;9284;52.298;21.164;2022-11-20T06:27:14;-7.20;99.90
18317;DHT22;9284;52.298;21.164;2022-11-20T06:29:43;-7.30;99.90
18317;DHT22;9284;52.298;21.164;2022-11-20T06:32:13;-7.30;99.90
18317;DHT22;9284;52.298;21.164;2022-11-20T06:34:43;-7.30;1.00
18317;DHT22;9284;52.298;21.164;2022-11-20T06:37:16;-7.10;1.00
18317;DHT22;9284;52.298;21.164;2022-11-20T06:39:47;-7.20;1.00
18317;DHT22;9284;52.298;21.164;2022-11-20T06:42:16;-7.20;1.00
18317;DHT22;9284;52.298;21.164;2022-11-20T06:44:44;-7.10;1.00
18317;DHT22;9284;52.298;21.164;2022-11-20T06:47:13;-7.10;1.00
18317;DHT22;9284;52.298;21.164;2022-11-20T06:49:47;-7.00;1.00
18317;DHT22;9284;52.298;21.164;2022-11-20T06:52:15;-6.90;1.00
18317;DHT22;9284;52.298;21.164;2022-11-20T06:54:43;-7.00;1.00
18317;DHT22;9284;52.298;21.164;2022-11-20T06:57:15;-7.00;1.00
18317;DHT22;9284;52.298;21.164;2022-11-20T06:59:43;-6.90;1.00
18317;DHT22;9284;52.298;21.164;2022-11-20T07:02:12;-6.90;1.00
18317;DHT22;9284;52.298;21.164;2022-11-20T07:04:41;-6.80;99.90
18317;DHT22;9284;52.298;21.164;2022-11-20T07:07:11;-6.80;99.90
18317;DHT22;9284;52.298;21.164;2022-11-20T07:09:40;-6.60;1.00
18317;DHT22;9284;52.298;21.164;2022-11-20T07:12:08;-6.60;1.00
18317;DHT22;9284;52.298;21.164;2022-11-20T07:14:36;-6.60;99.90
18317;DHT22;9284;52.298;21.164;2022-11-20T07:17:05;-6.50;74.00
18317;DHT22;9284;52.298;21.164;2022-11-20T07:19:33;-6.40;1.00
18317;DHT22;9284;52.298;21.164;2022-11-20T07:22:01;-6.30;1.00
18317;DHT22;9284;52.298;21.164;2022-11-20T07:24:31;-6.00;1.00
18317;DHT22;9284;52.298;21.164;2022-11-20T07:26:59;-5.80;1.00
18317;DHT22;9284;52.298;21.164;2022-11-20T07:29:29;-5.60;99.90
18317;DHT22;9284;52.298;21.164;2022-11-20T07:31:58;-5.70;99.90
18317;DHT22;9284;52.298;21.164;2022-11-20T07:34:26;-5.50;1.00
18317;DHT22;9284;52.298;21.164;2022-11-20T07:36:54;-5.50;1.00
18317;DHT22;9284;52.298;21.164;2022-11-20T07:39:23;-5.30;99.90
18317;DHT22;9284;52.298;21.164;2022-11-20T07:41:52;-5.40;93.80
18317;DHT22;9284;52.298;21.164;2022-11-20T07:44:21;-5.40;99.90
18317;DHT22;9284;52.298;21.164;2022-11-20T07:46:51;-5.30;1.00
18317;DHT22;9284;52.298;21.164;2022-11-20T07:49:19;-5.30;1.00
18317;DHT22;9284;52.298;21.164;2022-11-20T07:51:50;-5.20;99.90
18317;DHT22;9284;52.298;21.164;2022-11-20T07:54:27;-5.10;50.90
18317;DHT22;9284;52.298;21.164;2022-11-20T07:56:57;-5.00;1.00
18317;DHT22;9284;52.298;21.164;2022-11-20T07:59:25;-5.00;99.90
18317;DHT22;9284;52.298;21.164;2022-11-20T08:01:54;-4.90;99.90
18317;DHT22;9284;52.298;21.164;2022-11-20T08:04:23;-4.70;1.00
18317;DHT22;9284;52.298;21.164;2022-11-20T08:06:52;-4.60;1.00
18317;DHT22;9284;52.298;21.164;2022-11-20T08:09:20;-4.50;99.90
18317;DHT22;9284;52.298;21.164;2022-11-20T08:11:51;-4.30;1.00
18317;DHT22;9284;52.298;21.164;2022-11-20T08:14:41;-4.30;1.00
18317;DHT22;9284;52.298;21.164;2022-11-20T08:17:10;-4.20;1.00
18317;DHT22;9284;52.298;21.164;2022-11-20T08:19:38;-4.10;99.90
18317;DHT22;9284;52.298;21.164;2022-11-20T08:22:06;-3.90;1.00
18317;DHT22;9284;52.298;21.164;2022-11-20T08:24:35;-3.90;1.00
18317;DHT22;9284;52.298;21.164;2022-11-20T08:27:03;-3.80;1.00
18317;DHT22;9284;52.298;21.164;2022-11-20T08:29:33;-3.70;99.90
18317;DHT22;9284;52.298;21.164;2022-11-20T08:32:05;-3.70;99.90
18317;DHT22;9284;52.298;21.164;2022-11-20T08:34:34;-3.50;42.60
18317;DHT22;9284;52.298;21.164;2022-11-20T08:37:02;-3.40;1.00
18317;DHT22;9284;52.298;21.164;2022-11-20T08:39:37;-3.00;1.00
18317;DHT22;9284;52.298;21.164;2022-11-20T08:42:10;-2.90;1.00
18317;DHT22;9284;52.298;21.164;2022-11-20T08:44:39;-2.80;99.90
18317;DHT22;9284;52.298;21.164;2022-11-20T08:47:10;-2.60;99.90
18317;DHT22;9284;52.298;21.164;2022-11-20T08:49:38;-2.50;99.90
18317;DHT22;9284;52.298;21.164;2022-11-20T08:52:07;-2.50;99.90
18317;DHT22;9284;52.298;21.164;2022-11-20T08:54:35;-2.30;99.90
18317;DHT22;9284;52.298;21.164;2022-11-20T08:57:03;-2.30;99.90
18317;DHT22;9284;52.298;21.164;2022-11-20T08:59:32;-2.40;99.90
18317;DHT22;9284;52.298;21.164;2022-11-20T09:02:25;-2.30;99.90
18317;DHT22;9284;52.298;21.164;2022-11-20T09:04:53;-2.00;99.90
18317;DHT22;9284;52.298;21.164;2022-11-20T09:07:24;-2.10;99.90
18317;DHT22;9284;52.298;21.164;2022-11-20T09:09:54;-2.00;99.90
18317;DHT22;9284;52.298;21.164;2022-11-20T09:12:42;-2.10;99.90
18317;DHT22;9284;52.298;21.164;2022-11-20T09:15:10;-2.00;99.90
18317;DHT22;9284;52.298;21.164;2022-11-20T09:17:50;-1.80;99.90
18317;DHT22;9284;52.298;21.164;2022-11-20T09:20:19;-1.70;99.90
18317;DHT22;9284;52.298;21.164;2022-11-20T09:22:48;-1.70;99.90
18317;DHT22;9284;52.298;21.164;2022-11-20T09:25:18;-1.60;99.90
18317;DHT22;9284;52.298;21.164;2022-11-20T09:27:46;-1.50;99.90
18317;DHT22;9284;52.298;21.164;2022-11-20T09:30:15;-1.50;99.90
18317;DHT22;9284;52.298;21.164;2022-11-20T09:32:45;-1.50;99.90
18317;DHT22;9284;52.298;21.164;2022-11-20T09:35:14;-1.40;99.90
18317;DHT22;9284;52.298;21.164;2022-11-20T09:37:42;-1.50;99.90
18317;DHT22;9284;52.298;21.164;2022-11-20T09:40:19;-1.50;99.90
18317;DHT22;9284;52.298;21.164;2022-11-20T09:42:54;-1.40;99.90
18317;DHT22;9284;52.298;21.164;2022-11-20T09:45:30;-1.40;99.90
18317;DHT22;9284;52.298;21.164;2022-11-20T09:48:24;-1.30;99.90
18317;DHT22;9284;52.298;21.164;2022-11-20T09:50:57;-1.20;99.90
18317;DHT22;9284;52.298;21.164;2022-11-20T09:53:34;-1.20;99.90
18317;DHT22;9284;52.298;21.164;2022-11-20T09:56:04;-1.00;99.90
18317;DHT22;9284;52.298;21.164;2022-11-20T09:58:35;-1.10;99.90
18317;DHT22;9284;52.298;21.164;2022-11-20T10:01:11;-1.00;99.90
18317;DHT22;9284;52.298;21.164;2022-11-20T10:03:49;-1.00;99.90
18317;DHT22;9284;52.298;21.164;2022-11-20T10:06:28;-0.90;99.90
18317;DHT22;9284;52.298;21.164;2022-11-20T10:09:04;-0.90;99.90
18317;DHT22;9284;52.298;21.164;2022-11-20T10:11:41;-0.90;99.90
18317;DHT22;9284;52.298;21.164;2022-11-20T10:14:23;-0.90;99.90
18317;DHT22;9284;52.298;21.164;2022-11-20T10:17:02;-0.70;99.90
18317;DHT22;9284;52.298;21.164;2022-11-20T10:19:46;-0.70;99.90
18317;DHT22;9284;52.298;21.164;2022-11-20T10:22:27;-0.60;99.90
18317;DHT22;9284;52.298;21.164;2022-11-20T10:25:06;-0.60;99.90
18317;DHT22;9284;52.298;21.164;2022-11-20T10:27:58;-0.50;99.90
18317;DHT22;9284;52.298;21.164;2022-11-20T10:30:30;-0.50;99.90
18317;DHT22;9284;52.298;21.164;2022-11-20T10:33:04;-0.50;99.90
18317;DHT22;9284;52.298;21.164;2022-11-20T10:35:39;-0.40;99.90
18317;DHT22;9284;52.298;21.164;2022-11-20T10:38:13;-0.60;99.90
18317;DHT22;9284;52.298;21.164;2022-11-20T10:40:46;-0.40;99.90
18317;DHT22;9284;52.298;21.164;2022-11-20T10:43:21;-0.30;99.90
18317;DHT22;9284;52.298;21.164;2022-11-20T10:45:55;-0.10;99.90
18317;DHT22;9284;52.298;21.164;2022-11-20T10:48:26;-0.20;99.90
18317;DHT22;9284;52.298;21.164;2022-11-20T10:51:15;-0.20;99.90
18317;DHT22;9284;52.298;21.164;2022-11-20T10:54:06;-0.20;99.90
18317;DHT22;9284;52.298;21.164;2022-11-20T10:56:40;-0.10;99.90
18317;DHT22;9284;52.298;21.164;2022-11-20T10:59:35;0.00;99.90
18317;DHT22;9284;52.298;21.164;2022-11-20T11:02:19;-0.20;99.90
18317;DHT22;9284;52.298;21.164;2022-11-20T11:04:49;-0.10;99.90
18317;DHT22;9284;52.298;21.164;2022-11-20T11:07:22;0.00;99.90
18317;DHT22;9284;52.298;21.164;2022-11-20T11:09:55;0.00;99.90
18317;DHT22;9284;52.298;21.164;2022-11-20T11:12:27;0.00;99.90
18317;DHT22;9284;52.298;21.164;2022-11-20T11:14:57;0.10;99.90
18317;DHT22;9284;52.298;21.164;2022-11-20T11:17:29;0.30;99.90
18317;DHT22;9284;52.298;21.164;2022-11-20T11:20:03;0.30;98.60
18317;DHT22;9284;52.298;21.164;2022-11-20T11:22:45;0.40;95.20
18317;DHT22;9284;52.298;21.164;2022-11-20T11:25:25;0.20;99.90
18317;DHT22;9284;52.298;21.164;2022-11-20T11:27:56;0.20;99.90
18317;DHT22;9284;52.298;21.164;2022-11-20T11:30:26;0.20;99.90
18317;DHT22;9284;52.298;21.164;2022-11-20T11:33:05;0.20;99.90
18317;DHT22;9284;52.298;21.164;2022-11-20T11:35:44;0.10;99.90
18317;DHT22;9284;52.298;21.164;2022-11-20T11:38:21;0.20;99.90
18317;DHT22;9284;52.298;21.164;2022-11-20T11:40:53;0.20;99.90
18317;DHT22;9284;52.298;21.164;2022-11-20T11:43:25;0.30;99.90
18317;DHT22;9284;52.298;21.164;2022-11-20T11:46:25;0.20;99.90
18317;DHT22;9284;52.298;21.164;2022-11-20T11:48:59;0.20;99.90
18317;DHT22;9284;52.298;21.164;2022-11-20T11:51:34;0.20;99.90
18317;DHT22;9284;52.298;21.164;2022-11-20T11:54:19;0.20;99.70
18317;DHT22;9284;52.298;21.164;2022-11-20T11:56:49;0.20;98.60
18317;DHT22;9284;52.298;21.164;2022-11-20T11:59:29;0.30;92.80
18317;DHT22;9284;52.298;21.164;2022-11-20T12:02:08;0.30;95.50
18317;DHT22;9284;52.298;21.164;2022-11-20T12:04:44;0.30;99.00
18317;DHT22;9284;52.298;21.164;2022-11-20T12:07:18;0.30;99.90
18317;DHT22;9284;52.298;21.164;2022-11-20T12:10:17;0.30;99.90
18317;DHT22;9284;52.298;21.164;2022-11-20T12:12:51;0.30;99.90
18317;DHT22;9284;52.298;21.164;2022-11-20T12:15:33;0.30;99.90
18317;DHT22;9284;52.298;21.164;2022-11-20T12:18:01;0.30;99.90
18317;DHT22;9284;52.298;21.164;2022-11-20T12:20:35;0.40;96.10
18317;DHT22;9284;52.298;21.164;2022-11-20T12:23:16;0.40;98.90
18317;DHT22;9284;52.298;21.164;2022-11-20T12:25:49;0.40;96.50
18317;DHT22;9284;52.298;21.164;2022-11-20T12:28:34;0.30;96.60
18317;DHT22;9284;52.298;21.164;2022-11-20T12:31:19;0.40;93.70
18317;DHT22;9284;52.298;21.164;2022-11-20T12:34:00;0.40;82.90
18317;DHT22;9284;52.298;21.164;2022-11-20T12:36:39;0.30;75.10
18317;DHT22;9284;52.298;21.164;2022-11-20T12:39:26;0.30;79.40
18317;DHT22;9284;52.298;21.164;2022-11-20T12:42:13;0.20;90.80
18317;DHT22;9284;52.298;21.164;2022-11-20T12:45:32;0.20;99.90
18317;DHT22;9284;52.298;21.164;2022-11-20T12:51:01;0.20;99.90
18317;DHT22;9284;52.298;21.164;2022-11-20T12:53:48;0.20;99.90
18317;DHT22;9284;52.298;21.164;2022-11-20T12:56:27;0.10;95.70
18317;DHT22;9284;52.298;21.164;2022-11-20T12:59:10;0.00;80.00
18317;DHT22;9284;52.298;21.164;2022-11-20T13:01:49;0.30;94.30
18317;DHT22;9284;52.298;21.164;2022-11-20T13:04:42;0.10;91.80
18317;DHT22;9284;52.298;21.164;2022-11-20T13:07:16;0.20;82.30
18317;DHT22;9284;52.298;21.164;2022-11-20T13:09:46;0.10;94.40
18317;DHT22;9284;52.298;21.164;2022-11-20T13:12:22;0.10;90.80
18317;DHT22;9284;52.298;21.164;2022-11-20T13:15:02;0.10;92.50
18317;DHT22;9284;52.298;21.164;2022-11-20T13:17:36;0.10;93.00
18317;DHT22;9284;52.298;21.164;2022-11-20T13:20:12;0.10;92.60
18317;DHT22;9284;52.298;21.164;2022-11-20T13:22:44;0.10;92.10
18317;DHT22;9284;52.298;21.164;2022-11-20T13:25:22;0.10;93.50
18317;DHT22;9284;52.298;21.164;2022-11-20T13:27:51;0.00;85.60
18317;DHT22;9284;52.298;21.164;2022-11-20T13:30:22;0.00;94.80
18317;DHT22;9284;52.298;21.164;2022-11-20T13:32:53;0.00;99.90
18317;DHT22;9284;52.298;21.164;2022-11-20T13:35:30;0.10;98.70
18317;DHT22;9284;52.298;21.164;2022-11-20T13:38:07;0.00;99.90
18317;DHT22;9284;52.298;21.164;2022-11-20T13:40:37;0.00;99.00
18317;DHT22;9284;52.298;21.164;2022-11-20T13:43:21;0.00;99.90
18317;DHT22;9284;52.298;21.164;2022-11-20T13:46:00;-0.10;99.90
18317;DHT22;9284;52.298;21.164;2022-11-20T13:48:31;-0.10;99.90
18317;DHT22;9284;52.298;21.164;2022-11-20T13:51:09;0.00;99.90
18317;DHT22;9284;52.298;21.164;2022-11-20T13:56:39;-0.10;99.90
18317;DHT22;9284;52.298;21.164;2022-11-20T13:59:24;-0.20;99.90
18317;DHT22;9284;52.298;21.164;2022-11-20T14:01:56;-0.30;99.90
18317;DHT22;9284;52.298;21.164;2022-11-20T14:04:28;-0.30;99.90
18317;DHT22;9284;52.298;21.164;2022-11-20T14:06:57;-0.30;99.90
18317;DHT22;9284;52.298;21.164;2022-11-20T14:09:27;-0.50;99.90
18317;DHT22;9284;52.298;21.164;2022-11-20T14:11:56;-0.60;99.90
18317;DHT22;9284;52.298;21.164;2022-11-20T14:14:25;-0.70;99.90
18317;DHT22;9284;52.298;21.164;2022-11-20T14:17:06;-0.80;99.90
18317;DHT22;9284;52.298;21.164;2022-11-20T14:19:35;-0.90;99.90
18317;DHT22;9284;52.298;21.164;2022-11-20T14:22:10;-1.00;99.90
18317;DHT22;9284;52.298;21.164;2022-11-20T14:24:39;-1.10;1.00
18317;DHT22;9284;52.298;21.164;2022-11-20T14:27:12;-1.20;1.00
18317;DHT22;9284;52.298;21.164;2022-11-20T14:29:41;-1.20;1.00
18317;DHT22;9284;52.298;21.164;2022-11-20T14:32:15;-1.30;1.00
18317;DHT22;9284;52.298;21.164;2022-11-20T14:34:46;-1.30;1.00
18317;DHT22;9284;52.298;21.164;2022-11-20T14:37:19;-1.40;99.90
18317;DHT22;9284;52.298;21.164;2022-11-20T14:39:51;-1.30;99.90
18317;DHT22;9284;52.298;21.164;2022-11-20T14:42:21;-1.40;99.90
18317;DHT22;9284;52.298;21.164;2022-11-20T14:44:51;-1.40;99.90
18317;DHT22;9284;52.298;21.164;2022-11-20T14:47:24;-1.40;1.00
18317;DHT22;9284;52.298;21.164;2022-11-20T14:49:54;-1.50;1.00
18317;DHT22;9284;52.298;21.164;2022-11-20T14:52:25;-1.50;1.00
18317;DHT22;9284;52.298;21.164;2022-11-20T14:54:55;-1.50;2.00
18317;DHT22;9284;52.298;21.164;2022-11-20T14:57:27;-1.60;90.70
18317;DHT22;9284;52.298;21.164;2022-11-20T15:00:17;-1.60;99.90
18317;DHT22;9284;52.298;21.164;2022-11-20T15:02:49;-1.60;1.00
18317;DHT22;9284;52.298;21.164;2022-11-20T15:05:19;-1.70;99.90
18317;DHT22;9284;52.298;21.164;2022-11-20T15:07:49;-1.60;1.00
18317;DHT22;9284;52.298;21.164;2022-11-20T15:10:22;-1.60;1.00
18317;DHT22;9284;52.298;21.164;2022-11-20T15:12:52;-1.60;1.00
18317;DHT22;9284;52.298;21.164;2022-11-20T15:15:25;-1.50;57.00
18317;DHT22;9284;52.298;21.164;2022-11-20T15:17:58;-1.40;99.90
18317;DHT22;9284;52.298;21.164;2022-11-20T15:20:28;-1.50;99.90
18317;DHT22;9284;52.298;21.164;2022-11-20T15:22:58;-1.40;99.90
18317;DHT22;9284;52.298;21.164;2022-11-20T15:25:26;-1.40;99.90
18317;DHT22;9284;52.298;21.164;2022-11-20T15:27:56;-1.30;99.90
18317;DHT22;9284;52.298;21.164;2022-11-20T15:30:24;-1.30;99.90
18317;DHT22;9284;52.298;21.164;2022-11-20T15:32:52;-1.30;99.90
18317;DHT22;9284;52.298;21.164;2022-11-20T15:35:22;-1.30;52.40
18317;DHT22;9284;52.298;21.164;2022-11-20T15:37:50;-1.30;76.00
18317;DHT22;9284;52.298;21.164;2022-11-20T15:40:18;-1.40;99.90
18317;DHT22;9284;52.298;21.164;2022-11-20T15:42:46;-1.40;99.90
18317;DHT22;9284;52.298;21.164;2022-11-20T15:45:37;-1.40;1.00
18317;DHT22;9284;52.298;21.164;2022-11-20T15:48:10;-1.40;1.00
18317;DHT22;9284;52.298;21.164;2022-11-20T15:50:51;-1.30;76.20
18317;DHT22;9284;52.298;21.164;2022-11-20T15:53:20;-1.50;99.90
18317;DHT22;9284;52.298;21.164;2022-11-20T15:55:48;-1.60;46.80
18317;DHT22;9284;52.298;21.164;2022-11-20T15:58:17;-1.60;1.00
18317;DHT22;9284;52.298;21.164;2022-11-20T16:00:45;-1.70;1.00
18317;DHT22;9284;52.298;21.164;2022-11-20T16:03:14;-1.80;1.00
18317;DHT22;9284;52.298;21.164;2022-11-20T16:05:44;-1.80;99.90
18317;DHT22;9284;52.298;21.164;2022-11-20T16:08:13;-1.90;99.90
18317;DHT22;9284;52.298;21.164;2022-11-20T16:10:41;-1.90;1.00
18317;DHT22;9284;52.298;21.164;2022-11-20T16:13:14;-2.00;1.00
18317;DHT22;9284;52.298;21.164;2022-11-20T16:16:23;-1.90;1.00
18317;DHT22;9284;52.298;21.164;2022-11-20T16:18:52;-1.90;22.80
18317;DHT22;9284;52.298;21.164;2022-11-20T16:21:22;-1.90;1.00
18317;DHT22;9284;52.298;21.164;2022-11-20T16:23:54;-2.00;1.00
18317;DHT22;9284;52.298;21.164;2022-11-20T16:26:22;-2.00;1.00
18317;DHT22;9284;52.298;21.164;2022-11-20T16:28:50;-2.00;99.90
18317;DHT22;9284;52.298;21.164;2022-11-20T16:31:19;-2.00;99.90
18317;DHT22;9284;52.298;21.164;2022-11-20T16:33:51;-2.00;99.90
18317;DHT22;9284;52.298;21.164;2022-11-20T16:36:22;-1.90;99.90
18317;DHT22;9284;52.298;21.164;2022-11-20T16:38:52;-1.90;1.00
18317;DHT22;9284;52.298;21.164;2022-11-20T16:41:20;-1.90;1.00
18317;DHT22;9284;52.298;21.164;2022-11-20T16:43:50;-1.90;1.00
18317;DHT22;9284;52.298;21.164;2022-11-20T16:46:20;-1.80;1.00
18317;DHT22;9284;52.298;21.164;2022-11-20T16:48:52;-1.80;22.40
18317;DHT22;9284;52.298;21.164;2022-11-20T16:51:24;-1.90;1.00
18317;DHT22;9284;52.298;21.164;2022-11-20T16:53:54;-1.70;19.10
18317;DHT22;9284;52.298;21.164;2022-11-20T16:56:24;-1.80;60.80
18317;DHT22;9284;52.298;21.164;2022-11-20T16:58:54;-1.90;1.00
18317;DHT22;9284;52.298;21.164;2022-11-20T17:01:23;-1.90;1.00
18317;DHT22;9284;52.298;21.164;2022-11-20T17:03:56;-1.80;1.00
18317;DHT22;9284;52.298;21.164;2022-11-20T17:06:28;-1.80;1.00
18317;DHT22;9284;52.298;21.164;2022-11-20T17:08:57;-1.80;1.00
18317;DHT22;9284;52.298;21.164;2022-11-20T17:11:26;-1.80;99.90
18317;DHT22;9284;52.298;21.164;2022-11-20T17:13:55;-1.80;1.00
18317;DHT22;9284;52.298;21.164;2022-11-20T17:16:26;-1.80;1.00
18317;DHT22;9284;52.298;21.164;2022-11-20T17:18:55;-1.80;1.00
18317;DHT22;9284;52.298;21.164;2022-11-20T17:21:30;-1.90;1.00
18317;DHT22;9284;52.298;21.164;2022-11-20T17:24:00;-1.90;1.00
18317;DHT22;9284;52.298;21.164;2022-11-20T17:26:29;-1.90;1.00
18317;DHT22;9284;52.298;21.164;2022-11-20T17:28:59;-2.00;1.00
18317;DHT22;9284;52.298;21.164;2022-11-20T17:31:29;-2.00;1.00
18317;DHT22;9284;52.298;21.164;2022-11-20T17:33:58;-2.00;1.00
18317;DHT22;9284;52.298;21.164;2022-11-20T17:36:29;-2.00;1.00
18317;DHT22;9284;52.298;21.164;2022-11-20T17:38:58;-2.00;1.00
18317;DHT22;9284;52.298;21.164;2022-11-20T17:41:28;-1.90;1.00
18317;DHT22;9284;52.298;21.164;2022-11-20T17:43:58;-2.00;1.00
18317;DHT22;9284;52.298;21.164;2022-11-20T17:46:28;-2.00;1.00
18317;DHT22;9284;52.298;21.164;2022-11-20T17:48:58;-2.00;1.00
18317;DHT22;9284;52.298;21.164;2022-11-20T17:51:28;-1.90;1.00
18317;DHT22;9284;52.298;21.164;2022-11-20T17:54:00;-2.00;1.00
18317;DHT22;9284;52.298;21.164;2022-11-20T17:56:30;-2.10;1.00
18317;DHT22;9284;52.298;21.164;2022-11-20T17:59:16;-2.00;1.00
18317;DHT22;9284;52.298;21.164;2022-11-20T18:01:45;-2.10;1.00
18317;DHT22;9284;52.298;21.164;2022-11-20T18:04:14;-2.20;99.90
18317;DHT22;9284;52.298;21.164;2022-11-20T18:06:42;-2.30;99.90
18317;DHT22;9284;52.298;21.164;2022-11-20T18:09:12;-2.30;1.00
18317;DHT22;9284;52.298;21.164;2022-11-20T18:11:42;-2.40;99.90
18317;DHT22;9284;52.298;21.164;2022-11-20T18:14:12;-2.50;1.00
18317;DHT22;9284;52.298;21.164;2022-11-20T18:17:01;-2.60;18.50
18317;DHT22;9284;52.298;21.164;2022-11-20T18:19:31;-2.60;99.90
18317;DHT22;9284;52.298;21.164;2022-11-20T18:22:06;-2.80;99.90
18317;DHT22;9284;52.298;21.164;2022-11-20T18:24:36;-2.60;1.00
18317;DHT22;9284;52.298;21.164;2022-11-20T18:27:07;-2.80;1.00
18317;DHT22;9284;52.298;21.164;2022-11-20T18:29:36;-2.80;99.90
18317;DHT22;9284;52.298;21.164;2022-11-20T18:32:04;-2.90;1.00
18317;DHT22;9284;52.298;21.164;2022-11-20T18:34:32;-2.90;1.00
18317;DHT22;9284;52.298;21.164;2022-11-20T18:37:01;-3.00;99.90
18317;DHT22;9284;52.298;21.164;2022-11-20T18:39:30;-3.00;99.90
18317;DHT22;9284;52.298;21.164;2022-11-20T18:42:00;-3.00;48.50
18317;DHT22;9284;52.298;21.164;2022-11-20T18:44:46;-2.90;1.00
18317;DHT22;9284;52.298;21.164;2022-11-20T18:47:20;-3.10;28.10
18317;DHT22;9284;52.298;21.164;2022-11-20T18:49:49;-3.20;99.90
18317;DHT22;9284;52.298;21.164;2022-11-20T18:52:20;-3.20;99.90
18317;DHT22;9284;52.298;21.164;2022-11-20T18:54:49;-3.10;1.00
18317;DHT22;9284;52.298;21.164;2022-11-20T18:57:21;-3.40;1.00
18317;DHT22;9284;52.298;21.164;2022-11-20T18:59:49;-3.30;99.90
18317;DHT22;9284;52.298;21.164;2022-11-20T19:02:20;-3.30;99.90
18317;DHT22;9284;52.298;21.164;2022-11-20T19:04:48;-3.40;59.50
18317;DHT22;9284;52.298;21.164;2022-11-20T19:07:19;-3.40;99.90
18317;DHT22;9284;52.298;21.164;2022-11-20T19:09:54;-3.50;99.90
18317;DHT22;9284;52.298;21.164;2022-11-20T19:12:31;-3.50;99.90
18317;DHT22;9284;52.298;21.164;2022-11-20T19:15:00;-3.60;99.90
18317;DHT22;9284;52.298;21.164;2022-11-20T19:17:30;-3.70;1.00
18317;DHT22;9284;52.298;21.164;2022-11-20T19:19:59;-3.60;1.00
18317;DHT22;9284;52.298;21.164;2022-11-20T19:22:28;-3.50;34.60
18317;DHT22;9284;52.298;21.164;2022-11-20T19:24:56;-3.70;1.00
18317;DHT22;9284;52.298;21.164;2022-11-20T19:27:24;-3.80;99.90
18317;DHT22;9284;52.298;21.164;2022-11-20T19:29:54;-3.70;1.00
18317;DHT22;9284;52.298;21.164;2022-11-20T19:32:29;-3.50;1.00
18317;DHT22;9284;52.298;21.164;2022-11-20T19:34:58;-3.50;1.00
18317;DHT22;9284;52.298;21.164;2022-11-20T19:37:27;-3.50;1.00
18317;DHT22;9284;52.298;21.164;2022-11-20T19:39:57;-3.50;1.00
18317;DHT22;9284;52.298;21.164;2022-11-20T19:42:25;-3.40;1.00
18317;DHT22;9284;52.298;21.164;2022-11-20T19:44:55;-3.40;1.00
18317;DHT22;9284;52.298;21.164;2022-11-20T19:47:25;-3.30;99.90
18317;DHT22;9284;52.298;21.164;2022-11-20T19:50:19;-3.40;1.00
18317;DHT22;9284;52.298;21.164;2022-11-20T19:52:48;-3.40;1.00
18317;DHT22;9284;52.298;21.164;2022-11-20T19:55:23;-3.30;1.00
18317;DHT22;9284;52.298;21.164;2022-11-20T19:57:52;-3.40;1.00
18317;DHT22;9284;52.298;21.164;2022-11-20T20:00:21;-3.50;99.90
18317;DHT22;9284;52.298;21.164;2022-11-20T20:02:58;-3.40;99.90
18317;DHT22;9284;52.298;21.164;2022-11-20T20:05:26;-3.40;99.90
18317;DHT22;9284;52.298;21.164;2022-11-20T20:07:55;-3.50;99.90
18317;DHT22;9284;52.298;21.164;2022-11-20T20:10:24;-3.50;99.90
18317;DHT22;9284;52.298;21.164;2022-11-20T20:12:52;-3.50;1.00
18317;DHT22;9284;52.298;21.164;2022-11-20T20:15:22;-3.60;1.00
18317;DHT22;9284;52.298;21.164;2022-11-20T20:17:53;-3.60;1.00
18317;DHT22;9284;52.298;21.164;2022-11-20T20:20:21;-3.70;1.00
18317;DHT22;9284;52.298;21.164;2022-11-20T20:22:50;-3.80;1.00
18317;DHT22;9284;52.298;21.164;2022-11-20T20:25:18;-3.70;99.90
18317;DHT22;9284;52.298;21.164;2022-11-20T20:27:46;-3.60;1.00